Time;durP1;ratioP1;P1;durP2;ratioP2;P2;SDS_P1;SDS_P2;PMS_P1;PMS_P2;Temp;Humidity;BMP_temperature;BMP_pressure;BME280_temperature;BME280_humidity;BME280_pressure;Samples;Min_cycle;Max_cycle;Signal;HPM_P1;HPM_P2
2021/03/13 00:00:48;;;;;;;0.75;0.75;;;;;;;3.90;100.00;96781.41;4992213;28;20531;-80
2021/03/13 00:03:52;;;;;;;0.30;0.30;;;;;;;3.88;100.00;96775.69;4991771;28;20555;-80
2021/03/13 00:06:55;;;;;;;0.35;0.20;;;;;;;3.88;100.00;96767.41;4992475;28;20065;-84
2021/03/13 00:09:58;;;;;;;8.57;0.77;;;;;;;3.91;100.00;96762.91;4993768;28;20061;-81
2021/03/13 00:13:03;;;;;;;0.30;0.30;;;;;;;3.90;100.00;96751.16;4992723;28;20069;-83
2021/03/13 00:16:07;;;;;;;0.60;0.55;;;;;;;3.92;100.00;96740.38;5001200;28;20072;-82
2021/03/13 00:19:11;;;;;;;2.72;0.43;;;;;;;3.92;100.00;96734.13;5010468;28;20061;-82
2021/03/13 00:22:14;;;;;;;2.30;0.85;;;;;;;3.94;100.00;96726.88;5011212;28;20061;-82
2021/03/13 00:25:19;;;;;;;0.40;0.40;;;;;;;3.94;100.00;96709.59;5012304;28;20057;-88
2021/03/13 00:28:23;;;;;;;4.03;0.73;;;;;;;3.94;100.00;96715.88;5012315;28;20427;-86
2021/03/13 00:31:27;;;;;;;0.50;0.45;;;;;;;3.95;100.00;96713.84;5013707;28;20065;-86
2021/03/13 00:34:31;;;;;;;0.77;0.77;;;;;;;3.94;100.00;96693.84;5013795;28;20061;-89
2021/03/13 00:37:34;;;;;;;0.20;0.20;;;;;;;3.93;100.00;96697.09;5012924;28;20157;-90
2021/03/13 00:40:40;;;;;;;0.60;0.60;;;;;;;3.92;100.00;96679.09;5013706;28;20409;-89
2021/03/13 00:43:44;;;;;;;0.63;0.60;;;;;;;3.94;100.00;96666.31;5014239;28;20420;-88
2021/03/13 00:46:48;;;;;;;0.47;0.47;;;;;;;3.98;100.00;96653.03;5015449;28;20060;-88
2021/03/13 00:49:51;;;;;;;0.40;0.40;;;;;;;4.02;100.00;96628.72;5012837;28;20412;-85
2021/03/13 00:52:56;;;;;;;0.30;0.30;;;;;;;4.03;100.00;96613.69;5015320;28;20064;-87
2021/03/13 00:55:59;;;;;;;0.30;0.30;;;;;;;4.03;100.00;96624.69;5011985;28;20060;-86
2021/03/13 00:59:02;;;;;;;3.55;0.50;;;;;;;4.04;100.00;96637.22;5010178;28;20069;-86
2021/03/13 01:02:06;;;;;;;0.52;0.52;;;;;;;4.08;100.00;96648.72;5011337;28;20474;-83
2021/03/13 01:05:10;;;;;;;2.28;0.73;;;;;;;4.10;100.00;96646.19;5010457;28;20056;-82
2021/03/13 01:08:14;;;;;;;0.50;0.50;;;;;;;4.15;100.00;96647.41;5009867;28;20065;-81
2021/03/13 01:11:17;;;;;;;0.38;0.38;;;;;;;4.17;100.00;96631.13;5020177;28;20053;-84
2021/03/13 01:14:21;;;;;;;0.55;0.55;;;;;;;4.18;100.00;96641.63;5010655;28;20072;-82
2021/03/13 01:17:25;;;;;;;3.55;0.45;;;;;;;4.19;100.00;96653.41;4990706;28;20061;-83
2021/03/13 01:20:29;;;;;;;0.30;0.30;;;;;;;4.13;100.00;96667.22;5001224;28;20065;-83
2021/03/13 01:23:32;;;;;;;0.30;0.30;;;;;;;3.89;100.00;96680.84;4990840;28;20058;-84
2021/03/13 01:26:36;;;;;;;0.45;0.45;;;;;;;3.59;100.00;96668.97;4990796;28;20081;-82
2021/03/13 01:29:40;;;;;;;0.60;0.60;;;;;;;3.39;100.00;96656.28;4991010;28;20069;-83
2021/03/13 01:32:43;;;;;;;0.65;0.52;;;;;;;3.26;100.00;96658.06;4990427;28;20130;-82
2021/03/13 01:35:47;;;;;;;0.40;0.40;;;;;;;3.24;100.00;96641.31;4990717;28;20061;-82
2021/03/13 01:38:51;;;;;;;6.65;1.00;;;;;;;3.22;100.00;96646.59;4990709;28;20058;-82
2021/03/13 01:41:55;;;;;;;0.57;0.57;;;;;;;3.15;100.00;96636.09;4990747;28;20069;-81
2021/03/13 01:44:58;;;;;;;0.47;0.47;;;;;;;3.04;100.00;96632.13;4990879;28;20061;-81
2021/03/13 01:48:02;;;;;;;1.77;1.05;;;;;;;3.04;100.00;96637.63;4990659;28;20172;-82
2021/03/13 01:51:06;;;;;;;0.68;0.68;;;;;;;2.92;100.00;96640.91;4990630;28;20065;-81
2021/03/13 01:54:10;;;;;;;0.50;0.50;;;;;;;2.85;100.00;96628.44;4990593;28;20065;-82
2021/03/13 01:57:16;;;;;;;5.68;1.08;;;;;;;2.82;100.00;96636.91;4990460;28;20065;-81
2021/03/13 02:00:22;;;;;;;0.40;0.40;;;;;;;2.84;100.00;96628.91;4989193;28;20061;-82
2021/03/13 02:03:26;;;;;;;0.70;0.70;;;;;;;2.91;100.00;96642.16;4990205;28;20069;-81
2021/03/13 02:06:30;;;;;;;0.43;0.43;;;;;;;2.93;100.00;96642.41;4990181;28;20062;-82
2021/03/13 02:10:03;;;;;;;0.90;0.90;;;;;;;2.87;100.00;96645.16;4990481;28;20057;-82
2021/03/13 02:13:18;;;;;;;0.30;0.30;;;;;;;2.80;100.00;96664.91;4990185;28;20065;-82
2021/03/13 02:16:36;;;;;;;0.32;0.32;;;;;;;2.75;100.00;96654.66;5000955;28;20065;-82
2021/03/13 02:19:54;;;;;;;0.40;0.40;;;;;;;2.63;100.00;96649.66;5013605;28;20065;-81
2021/03/13 02:22:59;;;;;;;1.15;1.15;;;;;;;2.51;100.00;96662.69;5013757;28;20069;-82
2021/03/13 02:26:20;;;;;;;0.35;0.35;;;;;;;2.40;100.00;96681.88;5013494;28;20057;-81
2021/03/13 02:29:33;;;;;;;0.60;0.60;;;;;;;2.32;100.00;96675.38;5012770;28;20065;-81
2021/03/13 02:33:01;;;;;;;0.98;0.98;;;;;;;2.28;100.00;96688.59;5013397;28;20068;-82
2021/03/13 02:36:11;;;;;;;1.30;1.02;;;;;;;2.38;100.00;96676.16;5013320;28;20061;-81
2021/03/13 02:39:19;;;;;;;0.70;0.70;;;;;;;2.42;100.00;96675.88;5012600;28;20053;-80
2021/03/13 02:42:23;;;;;;;3.83;0.80;;;;;;;2.37;100.00;96669.16;5012376;28;20069;-80
2021/03/13 02:45:29;;;;;;;1.20;0.88;;;;;;;2.35;100.00;96671.63;5012195;28;20057;-80
2021/03/13 02:48:33;;;;;;;0.80;0.80;;;;;;;2.24;100.00;96669.63;4979858;28;20053;-80
2021/03/13 02:51:38;;;;;;;0.80;0.80;;;;;;;2.21;100.00;96672.59;4981354;28;20068;-79
2021/03/13 02:54:47;;;;;;;0.75;0.63;;;;;;;2.20;100.00;96668.38;4993971;28;20148;-80
2021/03/13 02:57:54;;;;;;;0.45;0.45;;;;;;;2.19;100.00;96670.38;5012563;28;20072;-80
2021/03/13 03:00:58;;;;;;;0.70;0.70;;;;;;;2.18;100.00;96668.13;5012976;28;20503;-80
2021/03/13 03:04:02;;;;;;;0.75;0.75;;;;;;;2.16;100.00;96673.38;5012754;28;20451;-80
2021/03/13 03:07:07;;;;;;;0.60;0.60;;;;;;;2.15;100.00;96658.13;5012474;28;20436;-80
2021/03/13 03:10:15;;;;;;;0.75;0.75;;;;;;;2.17;100.00;96669.34;5011370;28;20057;-80
2021/03/13 03:13:19;;;;;;;1.48;1.13;;;;;;;2.18;100.00;96673.63;5010819;28;20064;-81
2021/03/13 03:16:23;;;;;;;0.80;0.80;;;;;;;2.20;100.00;96665.63;5012136;28;20112;-80
2021/03/13 03:19:28;;;;;;;0.68;0.68;;;;;;;2.19;100.00;96664.13;5012373;28;20065;-81
2021/03/13 03:22:31;;;;;;;0.50;0.50;;;;;;;2.20;100.00;96676.59;5012521;28;20064;-80
2021/03/13 03:25:35;;;;;;;0.55;0.55;;;;;;;2.22;100.00;96679.59;5011707;28;20061;-80
2021/03/13 03:28:39;;;;;;;0.65;0.65;;;;;;;2.21;100.00;96678.09;5012499;28;20511;-80
2021/03/13 03:31:42;;;;;;;0.40;0.40;;;;;;;2.20;100.00;96682.09;5011920;28;20121;-80
2021/03/13 03:34:46;;;;;;;4.03;0.98;;;;;;;2.23;100.00;96675.63;5012118;28;20088;-80
2021/03/13 03:37:51;;;;;;;2.25;0.88;;;;;;;2.21;100.00;96686.31;5011208;28;20531;-80
2021/03/13 03:40:55;;;;;;;0.95;0.70;;;;;;;2.24;100.00;96666.13;5012298;28;20415;-80
2021/03/13 03:44:08;;;;;;;0.30;0.30;;;;;;;2.19;100.00;96664.13;5011666;28;20064;-80
2021/03/13 03:47:13;;;;;;;0.65;0.65;;;;;;;2.19;100.00;96655.88;5012018;28;20061;-80
2021/03/13 03:50:20;;;;;;;0.57;0.57;;;;;;;2.18;100.00;96657.16;5009396;28;20072;-83
2021/03/13 03:53:39;;;;;;;0.73;0.73;;;;;;;2.18;100.00;96652.41;5012152;28;20073;-83
2021/03/13 03:56:44;;;;;;;0.85;0.85;;;;;;;2.26;100.00;96652.66;5011961;28;20065;-83
2021/03/13 03:59:48;;;;;;;0.60;0.60;;;;;;;2.29;100.00;96657.16;5011915;28;20073;-83
2021/03/13 04:02:55;;;;;;;0.52;0.52;;;;;;;2.30;100.00;96656.66;5011973;28;20065;-82
2021/03/13 04:05:58;;;;;;;0.73;0.73;;;;;;;2.36;100.00;96651.16;5010466;28;20057;-83
2021/03/13 04:09:05;;;;;;;3.72;0.70;;;;;;;2.41;100.00;96664.16;5010936;28;20061;-83
2021/03/13 04:12:10;;;;;;;1.00;0.95;;;;;;;2.45;100.00;96648.16;5011234;28;20061;-82
2021/03/13 04:15:15;;;;;;;0.68;0.68;;;;;;;2.49;100.00;96645.91;5011346;28;20060;-83
2021/03/13 04:18:20;;;;;;;1.00;0.85;;;;;;;2.55;100.00;96651.44;5010729;28;20419;-84
2021/03/13 04:21:23;;;;;;;0.50;0.50;;;;;;;2.57;100.00;96649.69;5011120;28;20061;-83
2021/03/13 04:24:27;;;;;;;1.58;0.80;;;;;;;2.62;100.00;96656.44;5011594;28;20060;-83
2021/03/13 04:27:30;;;;;;;0.60;0.60;;;;;;;2.65;100.00;96660.91;5011548;28;20073;-83
2021/03/13 04:30:34;;;;;;;0.50;0.50;;;;;;;2.63;100.00;96658.66;5011547;28;20057;-84
2021/03/13 04:33:39;;;;;;;1.55;0.93;;;;;;;2.63;100.00;96664.16;5010877;28;20068;-83
2021/03/13 04:36:43;;;;;;;0.60;0.60;;;;;;;2.64;100.00;96673.88;5011378;28;20061;-82
2021/03/13 04:39:48;;;;;;;1.67;0.80;;;;;;;2.69;100.00;96666.91;5011153;28;20077;-83
2021/03/13 04:42:52;;;;;;;0.60;0.60;;;;;;;2.72;100.00;96677.66;5009950;28;20703;-83
2021/03/13 04:45:57;;;;;;;0.60;0.60;;;;;;;2.75;100.00;96670.41;5011129;28;20057;-83
2021/03/13 04:49:08;;;;;;;0.90;0.90;;;;;;;2.73;100.00;96673.63;5011243;28;20065;-84
2021/03/13 04:52:12;;;;;;;0.63;0.63;;;;;;;2.71;100.00;96673.38;5011205;28;20064;-84
2021/03/13 04:55:15;;;;;;;1.00;1.00;;;;;;;2.70;100.00;96682.13;5010026;28;20048;-84
2021/03/13 04:58:20;;;;;;;2.55;1.00;;;;;;;2.71;100.00;96680.88;5010577;28;20576;-85
2021/03/13 05:01:23;;;;;;;1.15;0.70;;;;;;;2.69;100.00;96673.13;5011218;28;20061;-84
2021/03/13 05:04:27;;;;;;;4.05;1.17;;;;;;;2.64;100.00;96682.13;5010885;28;20065;-83
2021/03/13 05:07:31;;;;;;;1.13;1.10;;;;;;;2.62;100.00;96701.09;5010821;28;20053;-83
2021/03/13 05:10:35;;;;;;;14.10;2.35;;;;;;;2.60;100.00;96719.34;5010754;28;20053;-85
2021/03/13 05:13:38;;;;;;;2.65;0.50;;;;;;;2.48;100.00;96701.34;5014301;28;20108;-84
2021/03/13 05:16:42;;;;;;;1.05;0.95;;;;;;;2.33;100.00;96726.31;5004560;28;20061;-84
2021/03/13 05:19:46;;;;;;;1.00;1.00;;;;;;;2.26;100.00;96735.78;4990969;28;20065;-84
2021/03/13 05:22:50;;;;;;;0.68;0.68;;;;;;;2.24;100.00;96732.00;4990883;28;20061;-81
2021/03/13 05:25:54;;;;;;;0.80;0.80;;;;;;;2.20;100.00;96747.97;4991336;28;20081;-83
2021/03/13 05:28:57;;;;;;;0.70;0.70;;;;;;;2.18;100.00;96734.00;4991292;28;20056;-82
2021/03/13 05:32:01;;;;;;;0.45;0.45;;;;;;;2.15;100.00;96734.97;4992259;28;20077;-83
2021/03/13 05:35:07;;;;;;;0.40;0.40;;;;;;;2.12;100.00;96741.47;4990367;28;20534;-83
2021/03/13 05:38:10;;;;;;;4.85;1.08;;;;;;;2.11;100.00;96746.22;4991148;28;20062;-84
2021/03/13 05:41:15;;;;;;;0.80;0.80;;;;;;;2.07;100.00;96753.19;4990394;28;20696;-84
2021/03/13 05:44:19;;;;;;;0.63;0.63;;;;;;;2.11;100.00;96756.44;4990801;28;20065;-84
2021/03/13 05:47:22;;;;;;;0.47;0.47;;;;;;;2.12;100.00;96757.94;4990550;28;20061;-83
2021/03/13 05:50:27;;;;;;;1.10;1.10;;;;;;;2.11;100.00;96746.22;4990544;28;20057;-83
2021/03/13 05:53:31;;;;;;;0.85;0.82;;;;;;;2.17;100.00;96737.97;4992053;28;20112;-81
2021/03/13 05:56:35;;;;;;;0.63;0.63;;;;;;;2.18;100.00;96744.97;4994115;28;20061;-84
2021/03/13 05:59:38;;;;;;;1.05;0.77;;;;;;;2.28;100.00;96744.25;4994300;28;20081;-83
2021/03/13 06:02:42;;;;;;;1.85;1.27;;;;;;;2.37;100.00;96743.28;4994700;28;20065;-82
2021/03/13 06:05:46;;;;;;;0.55;0.55;;;;;;;2.45;100.00;96751.78;4994399;28;20103;-83
2021/03/13 06:08:50;;;;;;;0.80;0.80;;;;;;;2.49;100.00;96746.81;4994185;28;20069;-82
2021/03/13 06:11:54;;;;;;;0.90;0.90;;;;;;;2.53;100.00;96753.56;4994287;28;20073;-83
2021/03/13 06:14:57;;;;;;;0.77;0.77;;;;;;;2.57;100.00;96758.78;4994389;28;20062;-82
2021/03/13 06:18:03;;;;;;;1.13;1.13;;;;;;;2.61;100.00;96760.06;5013293;28;20077;-82
2021/03/13 06:21:27;;;;;;;0.60;0.60;;;;;;;2.62;100.00;96778.00;5012504;28;20420;-83
2021/03/13 06:24:32;;;;;;;0.77;0.77;;;;;;;2.59;100.00;96790.00;5012290;28;20069;-83
2021/03/13 06:27:36;;;;;;;0.70;0.70;;;;;;;2.57;100.00;96789.75;5012272;28;20415;-83
2021/03/13 06:30:45;;;;;;;5.47;0.85;;;;;;;2.57;100.00;96794.50;5014319;28;20076;-82
2021/03/13 06:33:49;;;;;;;0.77;0.77;;;;;;;2.57;100.00;96792.50;5012684;28;20077;-82
2021/03/13 06:37:34;;;;;;;0.60;0.60;;;;;;;2.61;100.00;96803.25;5013158;28;20061;-82
2021/03/13 06:40:37;;;;;;;0.60;0.60;;;;;;;2.62;100.00;96813.00;5013030;28;20537;-83
2021/03/13 06:43:41;;;;;;;0.68;0.68;;;;;;;2.63;100.00;96807.00;5013167;28;20068;-83
2021/03/13 06:46:44;;;;;;;0.55;0.55;;;;;;;2.70;100.00;96819.50;5013246;28;20068;-83
2021/03/13 06:50:07;;;;;;;0.70;0.70;;;;;;;2.76;100.00;96831.25;5012912;28;20065;-83
2021/03/13 06:53:10;;;;;;;0.82;0.82;;;;;;;2.77;100.00;96828.00;5012534;28;20427;-83
2021/03/13 06:56:14;;;;;;;0.60;0.60;;;;;;;2.79;100.00;96835.75;5012851;28;20065;-83
2021/03/13 06:59:18;;;;;;;0.50;0.50;;;;;;;2.78;100.00;96835.00;5012443;28;20057;-82
2021/03/13 07:02:21;;;;;;;2.58;1.00;;;;;;;2.81;100.00;96834.03;5012438;28;20061;-82
2021/03/13 07:05:28;;;;;;;0.85;0.70;;;;;;;2.80;100.00;96832.50;5011599;28;20783;-84
2021/03/13 07:08:32;;;;;;;0.60;0.60;;;;;;;2.84;100.00;96865.97;5012302;28;20061;-83
2021/03/13 07:11:36;;;;;;;0.52;0.52;;;;;;;2.90;100.00;96860.50;5012286;28;20061;-83
2021/03/13 07:14:39;;;;;;;0.63;0.63;;;;;;;2.91;100.00;96867.50;5013366;28;20404;-85
2021/03/13 07:17:49;;;;;;;3.30;0.95;;;;;;;2.91;100.00;96865.50;4993942;28;20049;-87
2021/03/13 07:20:52;;;;;;;1.20;0.65;;;;;;;2.95;100.00;96871.50;4994772;28;20054;-87
2021/03/13 07:23:59;;;;;;;0.52;0.52;;;;;;;2.92;100.00;96880.00;4994787;28;20057;-83
2021/03/13 07:27:04;;;;;;;0.70;0.70;;;;;;;2.88;100.00;96882.97;4992770;28;20411;-84
2021/03/13 07:30:13;;;;;;;0.60;0.60;;;;;;;2.83;100.00;96893.97;4992861;28;20061;-84
2021/03/13 07:33:17;;;;;;;0.57;0.57;;;;;;;2.77;100.00;96893.94;4993395;28;20079;-87
2021/03/13 07:36:23;;;;;;;0.88;0.88;;;;;;;2.75;100.00;96906.69;5003175;28;20053;-88
2021/03/13 07:39:32;;;;;;;1.75;0.95;;;;;;;2.71;100.00;96923.41;5003623;28;20535;-87
2021/03/13 07:42:37;;;;;;;6.82;0.82;;;;;;;2.68;100.00;96929.91;4991884;28;20058;-85
2021/03/13 07:45:41;;;;;;;1.55;1.05;;;;;;;2.67;100.00;96944.84;4993583;28;20081;-84
2021/03/13 07:48:45;;;;;;;0.50;0.50;;;;;;;2.67;100.00;96944.84;4990530;28;20061;-84
2021/03/13 07:51:48;;;;;;;0.82;0.82;;;;;;;2.64;100.00;96951.34;4993228;28;20069;-89
2021/03/13 07:54:54;;;;;;;0.82;0.82;;;;;;;2.67;100.00;96955.84;4993738;28;20055;-88
2021/03/13 07:57:58;;;;;;;0.20;0.20;;;;;;;2.67;100.00;96955.84;4990721;28;20057;-85
2021/03/13 08:01:02;;;;;;;7.28;2.22;;;;;;;2.69;100.00;96971.84;4991669;28;20058;-84
2021/03/13 08:04:05;;;;;;;0.80;0.80;;;;;;;2.72;100.00;96985.34;4992309;28;20146;-85
2021/03/13 08:07:10;;;;;;;5.57;2.38;;;;;;;2.72;100.00;96996.34;4992762;28;20061;-86
2021/03/13 08:10:40;;;;;;;1.45;1.20;;;;;;;2.80;100.00;96980.88;4992668;28;20061;-85
2021/03/13 08:13:50;;;;;;;1.23;1.13;;;;;;;2.91;100.00;97002.91;5001766;28;20520;-83
2021/03/13 08:17:05;;;;;;;1.10;0.85;;;;;;;2.99;100.00;97019.69;5013886;28;21147;-89
2021/03/13 08:20:11;;;;;;;0.93;0.90;;;;;;;3.04;100.00;97036.22;5031912;28;20053;-87
2021/03/13 08:23:14;;;;;;;0.52;0.52;;;;;;;3.12;100.00;97030.25;5019004;28;20056;-87
2021/03/13 08:26:20;;;;;;;1.15;1.08;;;;;;;3.17;100.00;97040.50;5011643;28;20065;-89
2021/03/13 08:29:43;;;;;;;3.28;1.02;;;;;;;3.20;100.00;97028.53;5011853;28;20061;-86
2021/03/13 08:32:55;;;;;;;1.00;1.00;;;;;;;3.27;100.00;97055.56;5010543;28;20068;-81
2021/03/13 08:36:14;;;;;;;0.60;0.60;;;;;;;3.42;100.00;97067.09;5010163;28;20061;-83
2021/03/13 08:39:20;;;;;;;1.73;1.15;;;;;;;3.45;100.00;97083.34;5011133;28;20056;-82
2021/03/13 08:42:29;;;;;;;9.27;1.60;;;;;;;3.59;100.00;97078.91;5009987;28;20065;-83
2021/03/13 08:45:34;;;;;;;0.73;0.73;;;;;;;3.71;100.00;97099.69;5012405;28;20519;-82
2021/03/13 08:49:07;;;;;;;1.67;0.95;;;;;;;3.82;100.00;97121.75;5011700;28;20073;-83
2021/03/13 08:52:15;;;;;;;0.47;0.47;;;;;;;3.89;100.00;97135.03;4992820;28;20532;-83
2021/03/13 08:55:31;;;;;;;0.75;0.40;;;;;;;3.89;100.00;97137.78;4989789;28;20073;-81
2021/03/13 08:58:43;;;;;;;7.43;1.00;;;;;;;3.97;100.00;97155.31;4992011;28;20525;-84
2021/03/13 09:02:07;;;;;;;0.70;0.70;;;;;;;4.11;100.00;97176.41;4992508;28;20069;-79
2021/03/13 09:05:13;;;;;;;6.38;0.85;;;;;;;4.16;100.00;97178.38;4991650;28;20065;-81
2021/03/13 09:08:19;;;;;;;1.05;0.95;;;;;;;4.12;100.00;97202.66;4991472;28;20053;-79
2021/03/13 09:11:27;;;;;;;0.40;0.40;;;;;;;4.12;100.00;97216.44;4990627;28;20057;-78
2021/03/13 09:14:30;;;;;;;3.63;1.58;;;;;;;4.30;100.00;97231.78;4990906;28;20474;-78
2021/03/13 09:17:38;;;;;;;0.93;0.93;;;;;;;4.45;100.00;97233.06;4990896;28;20515;-79
2021/03/13 09:20:41;;;;;;;3.05;1.30;;;;;;;4.43;100.00;97254.84;4991174;28;20062;-78
2021/03/13 09:23:45;;;;;;;6.63;1.20;;;;;;;4.63;100.00;97258.66;4991326;28;20065;-79
2021/03/13 09:26:51;;;;;;;1.65;1.20;;;;;;;4.70;100.00;97271.94;4990575;28;20070;-79
2021/03/13 09:29:57;;;;;;;1.73;0.82;;;;;;;4.83;100.00;97266.69;4990789;28;20069;-79
2021/03/13 09:33:01;;;;;;;4.95;1.25;;;;;;;4.90;100.00;97293.75;4991461;28;20061;-79
2021/03/13 09:36:11;;;;;;;1.20;0.30;;;;;;;5.00;100.00;97295.03;4991005;28;20058;-78
2021/03/13 09:39:26;;;;;;;4.60;1.20;;;;;;;5.02;100.00;97284.25;4990377;28;20065;-79
2021/03/13 09:42:30;;;;;;;3.30;0.45;;;;;;;5.07;100.00;97303.56;4990180;28;20069;-79
2021/03/13 09:45:33;;;;;;;13.35;0.85;;;;;;;5.07;100.00;97319.34;4991703;28;20503;-79
2021/03/13 09:48:37;;;;;;;0.10;0.10;;;;;;;5.23;100.00;97321.38;4991203;28;20077;-78
2021/03/13 09:51:48;;;;;;;0.22;0.22;;;;;;;5.38;100.00;97319.13;5001697;28;20069;-78
2021/03/13 09:55:08;;;;;;;0.75;0.75;;;;;;;5.55;100.00;97330.91;5020407;28;20065;-78
2021/03/13 09:58:17;;;;;;;6.63;0.47;;;;;;;5.57;100.00;97333.16;5009746;28;20065;-78
2021/03/13 10:01:20;;;;;;;0.20;0.20;;;;;;;5.65;100.00;97334.91;5009847;28;20415;-79
2021/03/13 10:04:25;;;;;;;11.10;1.02;;;;;;;5.80;100.00;97351.97;5009827;28;20614;-79
2021/03/13 10:07:29;;;;;;;2.88;0.40;;;;;;;5.83;100.00;97366.78;5010092;28;20057;-78
2021/03/13 10:10:32;;;;;;;0.35;0.35;;;;;;;5.61;100.00;97362.03;5011273;28;20057;-78
2021/03/13 10:13:36;;;;;;;1.75;0.60;;;;;;;5.74;100.00;97376.06;5011918;28;20061;-78
2021/03/13 10:16:39;;;;;;;0.88;0.52;;;;;;;5.78;100.00;97378.59;5013765;28;20068;-78
2021/03/13 10:19:44;;;;;;;5.28;0.85;;;;;;;5.99;100.00;97390.91;5012073;28;20065;-78
2021/03/13 10:22:48;;;;;;;8.38;0.57;;;;;;;6.31;100.00;97394.09;5012228;28;20534;-78
2021/03/13 10:25:57;;;;;;;0.30;0.30;;;;;;;6.50;100.00;97389.50;5012826;28;20065;-78
2021/03/13 10:29:01;;;;;;;8.45;0.43;;;;;;;6.48;100.00;97401.09;5012546;28;20061;-78
2021/03/13 10:32:04;;;;;;;0.73;0.38;;;;;;;6.41;100.00;97414.69;5013964;28;20427;-78
2021/03/13 10:35:14;;;;;;;4.38;0.73;;;;;;;6.43;100.00;97420.47;5011919;28;20408;-78
2021/03/13 10:38:19;;;;;;;0.50;0.50;;;;;;;6.53;100.00;97421.69;5011568;28;20431;-78
2021/03/13 10:41:23;;;;;;;8.88;0.40;;;;;;;6.41;100.00;97420.22;5015158;28;20080;-78
2021/03/13 10:44:27;;;;;;;0.40;0.40;;;;;;;6.37;100.00;97430.75;5013057;28;20053;-78
2021/03/13 10:47:31;;;;;;;0.45;0.45;;;;;;;6.42;100.00;97439.06;5013518;28;20069;-79
2021/03/13 10:50:35;;;;;;;0.55;0.43;;;;;;;6.31;100.00;97443.84;5012966;28;20057;-78
2021/03/13 10:53:40;;;;;;;1.35;0.40;;;;;;;6.08;100.00;97449.41;5013490;28;20097;-78
2021/03/13 10:56:44;;;;;;;0.30;0.22;;;;;;;6.16;100.00;97457.16;5013141;28;20529;-78
2021/03/13 10:59:48;;;;;;;4.47;0.38;;;;;;;6.26;100.00;97461.94;5012762;28;20431;-78
2021/03/13 11:02:51;;;;;;;6.32;0.85;;;;;;;5.86;100.00;97488.09;5012532;28;20519;-79
2021/03/13 11:05:55;;;;;;;0.30;0.20;;;;;;;5.73;100.00;97479.50;5012910;28;20065;-79
2021/03/13 11:09:03;;;;;;;0.50;0.50;;;;;;;5.85;100.00;97486.56;5013066;28;20056;-79
2021/03/13 11:12:07;;;;;;;0.35;0.35;;;;;;;5.78;100.00;97489.78;5012279;28;20100;-80
2021/03/13 11:15:11;;;;;;;0.22;0.22;;;;;;;5.45;100.00;97503.53;5011821;28;20069;-79
2021/03/13 11:18:16;;;;;;;0.20;0.20;;;;;;;5.13;100.00;97499.44;5012678;28;20515;-79
2021/03/13 11:21:20;;;;;;;0.52;0.50;;;;;;;5.12;100.00;97497.91;5012272;28;20064;-79
2021/03/13 11:24:24;;;;;;;1.38;0.30;;;;;;;5.32;100.00;97500.50;5012134;28;20527;-79
2021/03/13 11:27:27;;;;;;;5.57;0.32;;;;;;;5.74;100.00;97494.06;5011850;28;20077;-79
2021/03/13 11:30:31;;;;;;;1.05;0.77;;;;;;;5.99;100.00;97502.16;5013121;28;20057;-79
2021/03/13 11:33:35;;;;;;;3.95;0.30;;;;;;;6.26;100.00;97510.94;5011960;28;20049;-79
2021/03/13 11:36:38;;;;;;;0.10;0.10;;;;;;;6.43;100.00;97490.31;5012188;28;20061;-79
2021/03/13 11:39:42;;;;;;;1.98;0.77;;;;;;;6.55;100.00;97504.88;5011969;28;20072;-78
2021/03/13 11:42:46;;;;;;;0.13;0.13;;;;;;;6.84;100.00;97518.88;5011560;28;20057;-79
2021/03/13 11:45:49;;;;;;;5.45;0.50;;;;;;;6.82;100.00;97498.53;5012624;28;20073;-79
2021/03/13 11:48:53;;;;;;;0.43;0.43;;;;;;;6.54;100.00;97529.00;5011880;28;20420;-79
2021/03/13 11:51:56;;;;;;;5.82;2.58;;;;;;;6.29;100.00;97537.56;5010684;28;20064;-79
2021/03/13 11:55:00;;;;;;;1.65;0.70;;;;;;;6.46;100.00;97541.06;5011990;28;20415;-79
2021/03/13 11:58:03;;;;;;;5.45;0.65;;;;;;;6.87;100.00;97537.25;5011505;28;20098;-79
2021/03/13 12:01:06;;;;;;;0.10;0.10;;;;;;;6.92;100.00;97560.63;5012168;28;20065;-79
2021/03/13 12:04:10;;;;;;;0.22;0.22;;;;;;;6.44;100.00;97568.47;5011228;28;20064;-80
2021/03/13 12:07:14;;;;;;;4.95;0.40;;;;;;;6.10;100.00;97574.00;5011431;28;20065;-80
2021/03/13 12:10:18;;;;;;;0.30;0.30;;;;;;;5.76;100.00;97557.84;5011888;28;20057;-80
2021/03/13 12:13:21;;;;;;;0.25;0.10;;;;;;;5.54;100.00;97557.78;5010286;28;20060;-80
2021/03/13 12:16:25;;;;;;;0.55;0.32;;;;;;;5.62;100.00;97573.34;5011667;28;20057;-80
2021/03/13 12:19:29;;;;;;;3.90;0.38;;;;;;;5.65;100.00;97586.16;5011329;28;20523;-80
2021/03/13 12:22:32;;;;;;;1.15;0.65;;;;;;;5.38;100.00;97581.28;5011055;28;20061;-81
2021/03/13 12:25:36;;;;;;;0.93;0.80;;;;;;;5.17;100.00;97588.22;5010588;28;20057;-82
2021/03/13 12:28:39;;;;;;;0.40;0.35;;;;;;;5.15;100.00;97580.44;5010321;28;20523;-81
2021/03/13 12:31:43;;;;;;;6.53;0.40;;;;;;;5.27;100.00;97545.38;5011770;28;20064;-81
2021/03/13 12:34:47;;;;;;;1.38;0.50;;;;;;;5.42;100.00;97572.75;5010436;28;20057;-81
2021/03/13 12:37:50;;;;;;;2.85;0.43;;;;;;;5.54;100.00;97577.84;5010769;28;20061;-80
2021/03/13 12:40:53;;;;;;;0.55;0.55;;;;;;;5.59;100.00;97601.94;5010865;28;20061;-80
2021/03/13 12:43:57;;;;;;;0.65;0.35;;;;;;;5.44;100.00;97615.19;5010979;28;20056;-81
2021/03/13 12:47:00;;;;;;;0.32;0.32;;;;;;;5.13;100.00;97631.84;5011486;28;20065;-81
2021/03/13 12:50:06;;;;;;;0.70;0.63;;;;;;;4.81;100.00;97633.88;5011328;28;20061;-80
2021/03/13 12:53:10;;;;;;;0.90;0.32;;;;;;;4.64;100.00;97638.50;5010203;28;20427;-81
2021/03/13 12:56:14;;;;;;;1.30;0.75;;;;;;;4.69;100.00;97639.81;5010344;28;20120;-81
2021/03/13 12:59:18;;;;;;;0.40;0.30;;;;;;;4.99;100.00;97643.78;5010065;28;20061;-80
2021/03/13 13:02:21;;;;;;;0.80;0.80;;;;;;;5.33;100.00;97634.44;5010300;28;20061;-80
2021/03/13 13:05:25;;;;;;;7.82;0.68;;;;;;;5.88;100.00;97634.72;5010582;28;20063;-78
2021/03/13 13:08:28;;;;;;;0.52;0.32;;;;;;;6.38;100.00;97631.28;5010497;28;20056;-78
2021/03/13 13:11:32;;;;;;;1.13;0.32;;;;;;;6.74;100.00;97633.81;5010533;28;20048;-78
2021/03/13 13:14:36;;;;;;;0.30;0.30;;;;;;;6.87;100.00;97633.31;5010324;28;20065;-78
2021/03/13 13:17:39;;;;;;;1.95;0.35;;;;;;;6.83;100.00;97635.56;4990972;28;20522;-78
2021/03/13 13:20:44;;;;;;;0.73;0.73;;;;;;;6.77;100.00;97634.84;4990872;28;20069;-78
2021/03/13 13:23:47;;;;;;;0.35;0.35;;;;;;;6.56;100.00;97666.75;4990198;28;20057;-78
2021/03/13 13:26:51;;;;;;;2.83;0.68;;;;;;;6.27;100.00;97661.69;4990259;28;20069;-78
2021/03/13 13:29:55;;;;;;;0.30;0.30;;;;;;;5.84;100.00;97642.50;4990498;28;20086;-78
2021/03/13 13:32:58;;;;;;;0.50;0.50;;;;;;;5.59;100.00;97653.66;4990995;28;20061;-79
2021/03/13 13:36:02;;;;;;;6.63;0.43;;;;;;;5.40;100.00;97656.06;4990661;28;20069;-78
2021/03/13 13:39:06;;;;;;;0.95;0.68;;;;;;;5.23;100.00;97658.75;4988911;28;20065;-79
2021/03/13 13:42:10;;;;;;;1.95;0.50;;;;;;;5.13;100.00;97653.91;4990060;28;20061;-79
2021/03/13 13:45:15;;;;;;;7.00;0.85;;;;;;;5.16;100.00;97666.72;4990217;28;20440;-79
2021/03/13 13:48:19;;;;;;;0.22;0.22;;;;;;;5.17;100.00;97665.47;4990564;28;20065;-79
2021/03/13 13:51:26;;;;;;;0.60;0.60;;;;;;;5.12;100.00;97660.66;5001078;28;20050;-79
2021/03/13 13:54:29;;;;;;;1.85;0.90;;;;;;;5.13;100.00;97681.50;4990240;28;20057;-79
2021/03/13 13:57:34;;;;;;;2.05;0.73;;;;;;;5.03;100.00;97666.38;4990713;28;20404;-79
2021/03/13 14:00:38;;;;;;;3.47;0.90;;;;;;;5.03;100.00;97683.69;4991343;28;20065;-77
2021/03/13 14:03:41;;;;;;;1.58;1.00;;;;;;;4.94;100.00;97691.38;4990377;28;20065;-78
2021/03/13 14:06:45;;;;;;;3.28;0.60;;;;;;;4.77;100.00;97698.75;4989969;28;20077;-79
2021/03/13 14:09:48;;;;;;;1.65;1.55;;;;;;;4.57;100.00;97692.09;4990409;28;20073;-78
2021/03/13 14:12:52;;;;;;;3.50;0.95;;;;;;;4.42;100.00;97702.47;4990452;28;20064;-78
2021/03/13 14:15:55;;;;;;;1.95;0.75;;;;;;;4.30;100.00;97702.84;4994573;28;20053;-78
2021/03/13 14:18:59;;;;;;;0.55;0.55;;;;;;;4.32;100.00;97703.88;4993000;28;20527;-78
2021/03/13 14:22:02;;;;;;;0.35;0.35;;;;;;;4.54;100.00;97717.88;4994114;28;20053;-78
2021/03/13 14:25:06;;;;;;;0.40;0.40;;;;;;;4.89;100.00;97714.94;4994133;28;20069;-78
2021/03/13 14:28:10;;;;;;;0.57;0.55;;;;;;;5.37;100.00;97709.50;5001534;28;20112;-78
2021/03/13 14:31:14;;;;;;;0.30;0.22;;;;;;;5.70;100.00;97720.72;5013474;28;20530;-78
2021/03/13 14:34:18;;;;;;;0.80;0.70;;;;;;;5.76;100.00;97723.53;5012780;28;20057;-78